createdAt,value
2023-04-07T00:01:02.348Z,91.78
2023-04-07T00:06:05.055Z,91.70
2023-04-07T00:11:09.821Z,90.97
2023-04-07T00:16:12.639Z,91.24
2023-04-07T00:21:15.897Z,91.13
2023-04-07T00:26:18.366Z,91.15
2023-04-07T00:31:20.827Z,92.12
2023-04-07T00:36:24.235Z,94.27
2023-04-07T00:41:26.598Z,94.29
2023-04-07T00:46:29.039Z,95.79
2023-04-07T00:51:32.752Z,97.37
2023-04-07T00:56:35.695Z,99.71
2023-04-07T01:01:48.159Z,99.62
2023-04-07T01:06:50.530Z,100.00
2023-04-07T01:11:53.773Z,100.00
2023-04-07T01:16:56.313Z,99.57
2023-04-07T01:21:58.968Z,100.00
2023-04-07T01:27:02.156Z,100.00
2023-04-07T01:32:04.866Z,100.00
2023-04-07T01:37:07.634Z,100.00
2023-04-07T01:42:09.961Z,100.00
2023-04-07T01:47:12.439Z,100.00
2023-04-07T01:52:15.716Z,100.00
2023-04-07T01:57:18.380Z,100.00
2023-04-07T02:02:21.144Z,100.00
2023-04-07T02:07:23.456Z,100.00
2023-04-07T02:12:26.446Z,100.00
2023-04-07T02:17:38.799Z,100.00
2023-04-07T02:22:42.613Z,100.00
2023-04-07T02:27:45.319Z,100.00
2023-04-07T02:32:48.483Z,100.00
2023-04-07T02:37:51.769Z,100.00
2023-04-07T02:42:54.441Z,100.00
2023-04-07T02:47:57.234Z,100.00
2023-04-07T02:52:59.958Z,100.00
2023-04-07T02:58:03.494Z,100.00
2023-04-07T03:03:06.447Z,100.00
2023-04-07T03:08:12.266Z,100.00
2023-04-07T03:13:16.765Z,100.00
2023-04-07T03:18:19.202Z,100.00
2023-04-07T03:23:23.939Z,100.00
2023-04-07T03:28:27.148Z,100.00
2023-04-07T03:33:29.632Z,100.00
2023-04-07T03:38:31.966Z,100.00
2023-04-07T03:43:34.665Z,100.00
2023-04-07T03:48:37.004Z,100.00
2023-04-07T03:53:39.391Z,100.00
2023-04-07T03:58:42.734Z,100.00
2023-04-07T04:03:45.201Z,100.00
2023-04-07T04:08:48.722Z,100.00
2023-04-07T04:13:52.168Z,100.00
2023-04-07T04:18:55.933Z,100.00
2023-04-07T04:23:58.353Z,100.00
2023-04-07T04:29:00.761Z,100.00
2023-04-07T04:34:04.238Z,100.00
2023-04-07T04:39:06.610Z,100.00
2023-04-07T04:44:09.230Z,100.00
2023-04-07T04:49:12.634Z,100.00
2023-04-07T04:54:15.039Z,100.00
2023-04-07T04:59:17.456Z,100.00
2023-04-07T05:04:21.183Z,100.00
2023-04-07T05:09:24.289Z,100.00
2023-04-07T05:14:26.645Z,100.00
2023-04-07T05:19:29.771Z,100.00
2023-04-07T05:24:33.050Z,100.00
2023-04-07T05:29:35.496Z,100.00
2023-04-07T05:34:37.912Z,100.00
2023-04-07T05:39:40.357Z,100.00
2023-04-07T05:44:43.292Z,100.00
2023-04-07T05:49:47.226Z,100.00
2023-04-07T05:54:49.668Z,100.00
2023-04-07T05:59:52.367Z,100.00
2023-04-07T06:04:54.741Z,100.00
2023-04-07T06:09:57.116Z,100.00
2023-04-07T06:15:00.290Z,100.00
2023-04-07T06:20:02.670Z,100.00
2023-04-07T06:25:05.229Z,100.00
2023-04-07T06:30:07.531Z,100.00
2023-04-07T06:35:11.301Z,100.00
2023-04-07T06:40:13.907Z,100.00
2023-04-07T06:45:17.041Z,100.00
2023-04-07T06:50:20.934Z,100.00
2023-04-07T06:55:24.759Z,100.00
2023-04-07T07:00:30.166Z,100.00
2023-04-07T07:05:33.652Z,100.00
2023-04-07T07:10:35.995Z,100.00
2023-04-07T07:15:39.751Z,100.00
2023-04-07T07:20:42.181Z,100.00
2023-04-07T07:25:44.573Z,100.00
2023-04-07T07:30:48.575Z,100.00
2023-04-07T07:35:55.932Z,100.00
2023-04-07T07:40:59.101Z,100.00
2023-04-07T07:46:01.460Z,100.00
2023-04-07T07:51:04.673Z,100.00
2023-04-07T07:56:07.484Z,100.00
2023-04-07T08:01:09.826Z,100.00
2023-04-07T08:06:12.953Z,100.00
2023-04-07T08:11:16.997Z,100.00
2023-04-07T08:16:20.326Z,100.00
2023-04-07T08:21:23.058Z,100.00
2023-04-07T08:26:26.181Z,100.00
2023-04-07T08:31:29.440Z,100.00
2023-04-07T08:36:32.059Z,99.06
2023-04-07T08:41:35.314Z,93.87
2023-04-07T08:46:38.494Z,91.53
2023-04-07T08:51:40.849Z,90.73
2023-04-07T08:56:43.272Z,86.04
2023-04-07T09:01:46.645Z,79.46
2023-04-07T09:06:49.815Z,80.00
2023-04-07T09:11:52.723Z,84.62
2023-04-07T09:16:55.165Z,85.57
2023-04-07T09:21:57.608Z,87.10
2023-04-07T09:26:59.914Z,89.80
2023-04-07T09:32:05.686Z,87.52
2023-04-07T09:37:09.390Z,85.77
2023-04-07T09:42:12.074Z,80.37
2023-04-07T09:47:14.423Z,83.77
2023-04-07T09:52:20.025Z,78.58
2023-04-07T09:57:23.856Z,75.21
2023-04-07T10:02:26.856Z,76.26
2023-04-07T10:07:29.283Z,74.18
2023-04-07T10:12:31.952Z,70.00
2023-04-07T10:17:35.192Z,69.05
2023-04-07T10:22:37.542Z,68.16
2023-04-07T10:27:39.865Z,69.60
2023-04-07T10:32:42.210Z,65.43
2023-04-07T10:37:44.567Z,69.13
2023-04-07T10:42:47.724Z,68.63
2023-04-07T10:47:50.147Z,72.76
2023-04-07T10:52:52.661Z,73.19
2023-04-07T10:57:54.968Z,71.10
2023-04-07T11:02:57.476Z,69.73
2023-04-07T11:08:02.769Z,70.26
2023-04-07T11:13:05.181Z,69.29
2023-04-07T11:18:07.594Z,65.75
2023-04-07T11:23:09.998Z,62.47
2023-04-07T11:28:13.146Z,63.04
2023-04-07T11:33:15.592Z,62.01
2023-04-07T11:38:17.935Z,62.05
2023-04-07T11:43:20.890Z,61.39
2023-04-07T11:48:23.437Z,59.70
2023-04-07T11:53:26.192Z,59.70
2023-04-07T11:58:28.957Z,55.43
2023-04-07T12:03:31.728Z,54.53
2023-04-07T12:08:34.283Z,54.71
2023-04-07T12:13:36.893Z,54.27
2023-04-07T12:18:39.271Z,57.59
2023-04-07T12:23:42.165Z,58.74
2023-04-07T12:28:45.476Z,57.52
2023-04-07T12:33:48.057Z,59.28
2023-04-07T12:38:50.633Z,58.99
2023-04-07T12:43:53.870Z,59.47
2023-04-07T12:48:56.249Z,59.47
2023-04-07T12:54:00.869Z,57.96
2023-04-07T12:59:03.181Z,56.64
2023-04-07T13:04:05.904Z,58.62
2023-04-07T13:09:08.359Z,60.47
2023-04-07T13:14:11.131Z,62.51
2023-04-07T13:19:13.988Z,65.00
2023-04-07T13:24:17.173Z,67.22
2023-04-07T13:29:19.932Z,67.57
2023-04-07T13:34:22.395Z,70.58
2023-04-07T13:39:25.006Z,71.52
2023-04-07T13:44:28.206Z,69.88
2023-04-07T13:49:30.795Z,70.05
2023-04-07T13:54:33.918Z,69.03
2023-04-07T13:59:36.321Z,67.31
2023-04-07T14:04:38.922Z,68.50
2023-04-07T14:09:42.871Z,72.43
2023-04-07T14:14:45.692Z,70.94
2023-04-07T14:19:49.452Z,70.49
2023-04-07T14:24:51.992Z,70.71
2023-04-07T14:30:04.308Z,71.70
2023-04-07T14:35:06.742Z,71.24
2023-04-07T14:40:10.230Z,70.66
2023-04-07T14:45:12.862Z,70.24
2023-04-07T14:50:15.635Z,72.40
2023-04-07T14:55:18.318Z,70.59
2023-04-07T15:00:20.804Z,74.19
2023-04-07T15:05:23.835Z,75.63
2023-04-07T15:10:27.101Z,77.28
2023-04-07T15:15:29.521Z,82.26
2023-04-07T15:20:33.146Z,86.05
2023-04-07T15:25:36.905Z,85.62
2023-04-07T15:30:39.330Z,83.29
2023-04-07T15:35:42.136Z,85.51
2023-04-07T15:40:45.671Z,84.63
2023-04-07T15:45:48.051Z,87.20
2023-04-07T15:50:51.936Z,86.91
2023-04-07T15:55:54.934Z,88.97
2023-04-07T16:00:58.237Z,89.65
2023-04-07T16:06:01.608Z,92.37
2023-04-07T16:11:04.442Z,91.21
2023-04-07T16:16:16.993Z,94.14
2023-04-07T16:21:21.151Z,98.29
2023-04-07T16:26:23.869Z,97.42
2023-04-07T16:31:36.316Z,97.79
2023-04-07T16:36:38.866Z,100.00
2023-04-07T16:41:42.247Z,100.00
2023-04-07T16:46:45.419Z,100.00
2023-04-07T16:51:48.766Z,100.00
2023-04-07T16:56:51.972Z,100.00
2023-04-07T17:01:54.727Z,100.00
2023-04-07T17:06:57.706Z,100.00
2023-04-07T17:12:01.190Z,100.00
2023-04-07T17:17:04.007Z,100.00
2023-04-07T17:22:06.373Z,100.00
2023-04-07T17:27:09.743Z,100.00
2023-04-07T17:32:12.251Z,100.00
2023-04-07T17:37:15.791Z,100.00
2023-04-07T17:42:18.173Z,100.00
2023-04-07T17:47:20.481Z,100.00
2023-04-07T17:52:23.420Z,100.00
2023-04-07T17:57:25.871Z,100.00
2023-04-07T18:02:28.939Z,100.00
2023-04-07T18:07:33.161Z,100.00
2023-04-07T18:12:36.222Z,100.00
2023-04-07T18:17:38.514Z,100.00
2023-04-07T18:22:40.969Z,100.00
2023-04-07T18:27:43.484Z,100.00
2023-04-07T18:32:46.347Z,100.00
2023-04-07T18:37:49.653Z,100.00
2023-04-07T18:42:52.373Z,100.00
2023-04-07T18:47:54.912Z,100.00
2023-04-07T18:52:57.659Z,100.00
2023-04-07T18:58:00.126Z,100.00
2023-04-07T19:03:03.243Z,100.00
2023-04-07T19:08:06.126Z,100.00
2023-04-07T19:13:08.820Z,100.00
2023-04-07T19:18:11.315Z,100.00
2023-04-07T19:23:13.855Z,100.00
2023-04-07T19:28:16.803Z,100.00
2023-04-07T19:33:19.565Z,100.00
2023-04-07T19:38:24.555Z,100.00
2023-04-07T19:43:27.044Z,100.00
2023-04-07T19:48:30.567Z,100.00
2023-04-07T19:53:33.054Z,100.00
2023-04-07T19:58:37.978Z,100.00
2023-04-07T20:03:42.932Z,100.00
2023-04-07T20:08:46.302Z,100.00
2023-04-07T20:13:48.606Z,100.00
2023-04-07T20:18:51.172Z,100.00
2023-04-07T20:23:53.714Z,100.00
2023-04-07T20:28:56.436Z,100.00
2023-04-07T20:33:58.838Z,100.00
2023-04-07T20:39:02.564Z,100.00
2023-04-07T20:44:05.522Z,100.00
2023-04-07T20:49:08.825Z,100.00
2023-04-07T20:54:11.468Z,100.00
2023-04-07T20:59:13.880Z,100.00
2023-04-07T21:04:16.820Z,100.00
2023-04-07T21:09:19.249Z,100.00
2023-04-07T21:14:21.611Z,100.00
2023-04-07T21:19:25.047Z,100.00
2023-04-07T21:24:27.435Z,100.00
2023-04-07T21:29:30.291Z,100.00
2023-04-07T21:34:33.509Z,100.00
2023-04-07T21:39:41.600Z,100.00
2023-04-07T21:44:46.230Z,100.00
2023-04-07T21:49:48.889Z,100.00
2023-04-07T21:54:51.615Z,100.00
2023-04-07T21:59:54.039Z,100.00
2023-04-07T22:04:56.433Z,100.00
2023-04-07T22:09:59.211Z,100.00
2023-04-07T22:15:02.340Z,100.00
2023-04-07T22:20:05.039Z,100.00
2023-04-07T22:25:07.688Z,100.00
2023-04-07T22:30:10.930Z,100.00
2023-04-07T22:35:13.610Z,100.00
2023-04-07T22:40:17.196Z,100.00
2023-04-07T22:45:19.642Z,100.00
2023-04-07T22:50:23.320Z,100.00
2023-04-07T22:55:25.735Z,100.00
2023-04-07T23:00:28.505Z,100.00
2023-04-07T23:05:40.908Z,100.00
2023-04-07T23:10:44.205Z,100.00
2023-04-07T23:15:47.354Z,100.00
2023-04-07T23:20:52.878Z,100.00
2023-04-07T23:25:56.163Z,100.00
2023-04-07T23:30:58.867Z,100.00
2023-04-07T23:36:02.242Z,100.00
2023-04-07T23:41:04.902Z,100.00
2023-04-07T23:46:07.266Z,100.00
2023-04-07T23:51:09.584Z,100.00
2023-04-07T23:56:11.956Z,100.00
